Time,TemperatureF,DewpointF,PressureIn,WindDirection,WindDirectionDegrees,WindSpeedMPH,WindSpeedGustMPH,Humidity,HourlyPrecipIn,Conditions,Clouds,dailyrainin,SolarRadiationWatts/m^2,SoftwareType,DateUTC
2013-02-02 00:03:00,5.0,2.0,-100.00,WNW,284,3.0,8.0,85,0.00,,,0.00,0.000000,,2013-02-02 05:03:00,
2013-02-02 00:33:00,3.0,-1.0,-100.00,West,279,4.0,6.0,84,0.00,,,0.00,0.000000,,2013-02-02 05:33:00,
2013-02-02 00:42:00,3.0,-1.0,-100.00,West,279,4.0,6.0,84,0.00,,,0.00,0.000000,,2013-02-02 05:42:00,
2013-02-02 00:52:00,3.0,-1.0,-100.00,West,279,4.0,6.0,84,0.00,,,0.00,0.000000,,2013-02-02 05:52:00,
2013-02-02 01:02:00,3.0,-1.0,-100.00,West,279,4.0,6.0,84,0.00,,,0.00,0.000000,,2013-02-02 06:02:00,
2013-02-02 01:22:00,3.0,-1.0,-100.00,West,276,7.0,10.0,84,0.00,,,0.00,0.000000,,2013-02-02 06:22:00,
2013-02-02 01:32:00,3.0,-1.0,-100.00,West,276,7.0,10.0,84,0.00,,,0.00,0.000000,,2013-02-02 06:32:00,
2013-02-02 01:42:00,3.0,-1.0,-100.00,West,276,7.0,10.0,84,0.00,,,0.00,0.000000,,2013-02-02 06:42:00,
2013-02-02 01:52:00,3.0,-1.0,-100.00,West,276,7.0,10.0,84,0.00,,,0.00,0.000000,,2013-02-02 06:52:00,
2013-02-02 02:02:00,3.0,-1.0,-100.00,West,276,7.0,10.0,84,0.00,,,0.00,0.000000,,2013-02-02 07:02:00,
2013-02-02 02:32:00,1.0,-3.0,-100.00,West,276,6.0,10.0,82,0.00,,,0.00,0.000000,,2013-02-02 07:32:00,
2013-02-02 02:42:00,1.0,-3.0,-100.00,West,276,6.0,10.0,82,0.00,,,0.00,0.000000,,2013-02-02 07:42:00,
2013-02-02 02:52:00,1.0,-3.0,-100.00,West,276,6.0,10.0,82,0.00,,,0.00,0.000000,,2013-02-02 07:52:00,
2013-02-02 03:01:00,1.0,-3.0,-100.00,West,276,6.0,10.0,82,0.00,,,0.00,0.000000,,2013-02-02 08:01:00,
2013-02-02 03:32:00,0.0,-4.0,-100.00,West,271,7.0,10.0,82,0.00,,,0.00,0.000000,,2013-02-02 08:32:00,
2013-02-02 03:42:00,0.0,-4.0,-100.00,West,271,7.0,10.0,82,0.00,,,0.00,0.000000,,2013-02-02 08:42:00,
2013-02-02 03:53:00,0.0,-4.0,-100.00,West,271,7.0,10.0,82,0.00,,,0.00,0.000000,,2013-02-02 08:53:00,
2013-02-02 04:01:00,0.0,-4.0,-100.00,West,271,7.0,10.0,82,0.00,,,0.00,0.000000,,2013-02-02 09:01:00,
2013-02-02 04:32:00,-1.0,-5.0,-100.00,WSW,245,5.0,9.0,81,0.00,,,0.00,0.000000,,2013-02-02 09:32:00,
2013-02-02 04:42:00,-1.0,-5.0,-100.00,WSW,245,5.0,9.0,81,0.00,,,0.00,0.000000,,2013-02-02 09:42:00,
2013-02-02 04:52:00,-1.0,-5.0,-100.00,WSW,245,5.0,9.0,81,0.00,,,0.00,0.000000,,2013-02-02 09:52:00,
2013-02-02 05:02:00,-1.0,-5.0,-100.00,WSW,245,5.0,9.0,81,0.00,,,0.00,0.000000,,2013-02-02 10:02:00,
2013-02-02 05:32:00,1.0,-3.0,-100.00,West,280,7.0,11.0,82,0.00,,,0.00,0.000000,,2013-02-02 10:32:00,
2013-02-02 05:42:00,1.0,-3.0,-100.00,West,280,7.0,11.0,82,0.00,,,0.00,0.000000,,2013-02-02 10:42:00,
2013-02-02 05:52:00,1.0,-3.0,-100.00,West,280,7.0,11.0,82,0.00,,,0.00,0.000000,,2013-02-02 10:52:00,
2013-02-02 06:02:00,1.0,-3.0,-100.00,West,280,7.0,11.0,82,0.00,,,0.00,0.000000,,2013-02-02 11:02:00,
2013-02-02 06:32:00,1.0,-3.0,-100.00,WNW,284,5.0,12.0,83,0.00,,,0.00,0.000000,,2013-02-02 11:32:00,
2013-02-02 06:42:00,1.0,-3.0,-100.00,WNW,284,5.0,12.0,83,0.00,,,0.00,0.000000,,2013-02-02 11:42:00,
2013-02-02 06:52:00,1.0,-3.0,-100.00,WNW,284,5.0,12.0,83,0.00,,,0.00,0.000000,,2013-02-02 11:52:00,
2013-02-02 07:02:00,1.0,-3.0,-100.00,WNW,284,5.0,12.0,83,0.00,,,0.00,0.000000,,2013-02-02 12:02:00,
2013-02-02 07:32:00,1.0,-3.0,-100.00,West,270,2.0,7.0,83,0.00,,,0.00,0.000000,,2013-02-02 12:32:00,
2013-02-02 07:42:00,1.0,-3.0,-100.00,West,270,2.0,7.0,83,0.00,,,0.00,0.000000,,2013-02-02 12:42:00,
2013-02-02 07:53:00,1.0,-3.0,-100.00,West,270,2.0,7.0,83,0.00,,,0.00,0.000000,,2013-02-02 12:53:00,
2013-02-02 08:03:00,1.0,-3.0,-100.00,West,270,2.0,7.0,83,0.00,,,0.00,0.000000,,2013-02-02 13:03:00,
2013-02-02 08:22:00,0.0,-4.0,-100.00,West,265,4.0,6.0,82,0.00,,,0.00,0.000000,,2013-02-02 13:22:00,
2013-02-02 08:33:00,0.0,-4.0,-100.00,West,265,4.0,6.0,82,0.00,,,0.00,0.000000,,2013-02-02 13:33:00,
2013-02-02 08:42:00,0.0,-4.0,-100.00,West,265,4.0,6.0,82,0.00,,,0.00,0.000000,,2013-02-02 13:42:00,
2013-02-02 08:52:00,0.0,-4.0,-100.00,West,265,4.0,6.0,82,0.00,,,0.00,0.000000,,2013-02-02 13:52:00,
2013-02-02 09:03:00,0.0,-4.0,-100.00,West,265,4.0,6.0,82,0.00,,,0.00,0.000000,,2013-02-02 14:03:00,
2013-02-02 09:22:00,1.0,-3.0,-100.00,WSW,258,2.0,7.0,82,0.00,,,0.00,9.000000,,2013-02-02 14:22:00,
2013-02-02 09:33:00,1.0,-3.0,-100.00,WSW,258,2.0,7.0,82,0.00,,,0.00,9.000000,,2013-02-02 14:33:00,
2013-02-02 09:42:00,1.0,-3.0,-100.00,WSW,258,2.0,7.0,82,0.00,,,0.00,9.000000,,2013-02-02 14:42:00,
2013-02-02 09:52:00,1.0,-3.0,-100.00,WSW,258,2.0,7.0,82,0.00,,,0.00,9.000000,,2013-02-02 14:52:00,
2013-02-02 10:03:00,1.0,-3.0,-100.00,WSW,258,2.0,7.0,82,0.00,,,0.00,9.000000,,2013-02-02 15:03:00,
2013-02-02 10:33:00,5.0,1.0,-100.00,West,262,2.0,4.0,82,0.00,,,0.00,34.000000,,2013-02-02 15:33:00,
2013-02-02 10:42:00,5.0,1.0,-100.00,West,262,2.0,4.0,82,0.00,,,0.00,34.000000,,2013-02-02 15:42:00,
2013-02-02 10:52:00,5.0,1.0,-100.00,West,262,2.0,4.0,82,0.00,,,0.00,34.000000,,2013-02-02 15:52:00,
2013-02-02 11:03:00,5.0,1.0,-100.00,West,262,2.0,4.0,82,0.00,,,0.00,34.000000,,2013-02-02 16:03:00,
2013-02-02 11:23:00,13.0,9.0,-100.00,WSW,252,2.0,5.0,82,0.00,,,0.00,99.000000,,2013-02-02 16:23:00,
2013-02-02 11:32:00,13.0,9.0,-100.00,WSW,252,2.0,5.0,82,0.00,,,0.00,99.000000,,2013-02-02 16:32:00,
2013-02-02 11:42:00,13.0,9.0,-100.00,WSW,252,2.0,5.0,82,0.00,,,0.00,99.000000,,2013-02-02 16:42:00,
2013-02-02 11:52:00,13.0,9.0,-100.00,WSW,252,2.0,5.0,82,0.00,,,0.00,99.000000,,2013-02-02 16:52:00,
2013-02-02 12:03:00,13.0,9.0,-100.00,WSW,252,2.0,5.0,82,0.00,,,0.00,99.000000,,2013-02-02 17:03:00,
2013-02-02 12:23:00,13.0,9.0,-100.00,North,7,7.0,16.0,83,0.00,,,0.00,106.000000,,2013-02-02 17:23:00,
2013-02-02 12:33:00,13.0,9.0,-100.00,North,7,7.0,16.0,83,0.00,,,0.00,106.000000,,2013-02-02 17:33:00,
2013-02-02 12:42:00,13.0,9.0,-100.00,North,7,7.0,16.0,83,0.00,,,0.00,106.000000,,2013-02-02 17:42:00,
2013-02-02 12:53:00,13.0,9.0,-100.00,North,7,7.0,16.0,83,0.00,,,0.00,106.000000,,2013-02-02 17:53:00,
2013-02-02 13:03:00,13.0,9.0,-100.00,North,7,7.0,16.0,83,0.00,,,0.00,106.000000,,2013-02-02 18:03:00,
2013-02-02 13:32:00,15.0,11.0,-100.00,North,352,5.0,14.0,83,0.00,,,0.00,119.000000,,2013-02-02 18:32:00,
2013-02-02 13:42:00,15.0,11.0,-100.00,North,352,5.0,14.0,83,0.00,,,0.00,119.000000,,2013-02-02 18:42:00,
2013-02-02 13:52:00,15.0,11.0,-100.00,North,352,5.0,14.0,83,0.00,,,0.00,119.000000,,2013-02-02 18:52:00,
2013-02-02 14:02:00,15.0,11.0,-100.00,North,352,5.0,14.0,83,0.00,,,0.00,119.000000,,2013-02-02 19:02:00,
2013-02-02 14:22:00,14.0,10.0,-100.00,NNE,12,8.0,13.0,83,0.01,,,0.01,160.000000,,2013-02-02 19:22:00,
2013-02-02 14:32:00,14.0,10.0,-100.00,NNE,12,8.0,13.0,83,0.01,,,0.01,160.000000,,2013-02-02 19:32:00,
2013-02-02 14:42:00,14.0,10.0,-100.00,NNE,12,8.0,13.0,83,0.01,,,0.01,160.000000,,2013-02-02 19:42:00,
2013-02-02 14:52:00,14.0,10.0,-100.00,NNE,12,8.0,13.0,83,0.01,,,0.01,160.000000,,2013-02-02 19:52:00,
2013-02-02 15:02:00,14.0,10.0,-100.00,NNE,12,8.0,13.0,83,0.01,,,0.01,160.000000,,2013-02-02 20:02:00,
2013-02-02 15:32:00,14.0,9.0,-100.00,North,354,7.0,13.0,79,0.00,,,0.01,219.000000,,2013-02-02 20:32:00,
2013-02-02 15:42:00,14.0,9.0,-100.00,North,354,7.0,13.0,79,0.00,,,0.01,219.000000,,2013-02-02 20:42:00,
2013-02-02 15:52:00,14.0,9.0,-100.00,North,354,7.0,13.0,79,0.00,,,0.01,219.000000,,2013-02-02 20:52:00,
2013-02-02 16:02:00,14.0,9.0,-100.00,North,354,7.0,13.0,79,0.00,,,0.01,219.000000,,2013-02-02 21:02:00,
2013-02-02 16:32:00,13.0,8.0,-100.00,North,357,6.0,12.0,80,0.00,,,0.01,149.000000,,2013-02-02 21:32:00,
2013-02-02 16:42:00,13.0,8.0,-100.00,North,357,6.0,12.0,80,0.00,,,0.01,149.000000,,2013-02-02 21:42:00,
2013-02-02 16:52:00,13.0,8.0,-100.00,North,357,6.0,12.0,80,0.00,,,0.01,149.000000,,2013-02-02 21:52:00,
2013-02-02 17:03:00,13.0,8.0,-100.00,North,357,6.0,12.0,80,0.00,,,0.01,149.000000,,2013-02-02 22:03:00,
2013-02-02 17:32:00,12.0,8.0,-100.00,NW,321,2.0,9.0,84,0.00,,,0.01,23.000000,,2013-02-02 22:32:00,
2013-02-02 17:42:00,12.0,8.0,-100.00,NW,321,2.0,9.0,84,0.00,,,0.01,23.000000,,2013-02-02 22:42:00,
2013-02-02 17:52:00,12.0,8.0,-100.00,NW,321,2.0,9.0,84,0.00,,,0.01,23.000000,,2013-02-02 22:52:00,
2013-02-02 18:02:00,12.0,8.0,-100.00,NW,321,2.0,9.0,84,0.00,,,0.01,23.000000,,2013-02-02 23:02:00,
2013-02-02 18:32:00,3.0,-1.0,-100.00,SW,236,0.0,4.0,84,0.00,,,0.01,6.000000,,2013-02-02 23:32:00,
2013-02-02 19:02:00,3.0,-1.0,-100.00,SW,236,0.0,4.0,84,0.00,,,0.01,6.000000,,2013-02-03 00:02:00,
2013-02-02 19:22:00,-4.0,-9.0,-100.00,WSW,254,2.0,3.0,80,0.00,,,0.01,0.000000,,2013-02-03 00:22:00,
2013-02-02 19:32:00,-4.0,-9.0,-100.00,WSW,254,2.0,3.0,80,0.00,,,0.01,0.000000,,2013-02-03 00:32:00,
2013-02-02 20:32:00,-1.0,-5.0,-100.00,West,262,2.0,3.0,82,-99.99,,,0.01,0.000000,,2013-02-03 01:32:00,
2013-02-02 21:01:00,-1.0,-5.0,-100.00,West,262,2.0,3.0,82,-99.99,,,0.01,0.000000,,2013-02-03 02:01:00,
2013-02-02 21:32:00,2.0,-2.0,-100.00,WSW,258,2.0,4.0,83,0.00,,,0.01,0.000000,,2013-02-03 02:32:00,
2013-02-02 21:42:00,2.0,-2.0,-100.00,WSW,258,2.0,4.0,83,0.00,,,0.01,0.000000,,2013-02-03 02:42:00,
2013-02-02 21:52:00,2.0,-2.0,-100.00,WSW,258,2.0,4.0,83,0.00,,,0.01,0.000000,,2013-02-03 02:52:00,
2013-02-02 22:02:00,2.0,-2.0,-100.00,WSW,258,2.0,4.0,83,0.00,,,0.01,0.000000,,2013-02-03 03:02:00,
2013-02-02 22:32:00,5.0,2.0,-100.00,WSW,242,3.0,5.0,85,0.00,,,0.01,0.000000,,2013-02-03 03:32:00,
2013-02-02 22:42:00,5.0,2.0,-100.00,WSW,242,3.0,5.0,85,0.00,,,0.01,0.000000,,2013-02-03 03:42:00,
2013-02-02 22:52:00,5.0,2.0,-100.00,WSW,242,3.0,5.0,85,0.00,,,0.01,0.000000,,2013-02-03 03:52:00,
2013-02-02 23:01:00,5.0,2.0,-100.00,WSW,242,3.0,5.0,85,0.00,,,0.01,0.000000,,2013-02-03 04:01:00,
2013-02-02 23:22:00,1.0,-3.0,-100.00,WSW,254,3.0,6.0,84,0.00,,,0.01,0.000000,,2013-02-03 04:22:00,
2013-02-02 23:32:00,1.0,-3.0,-100.00,WSW,254,3.0,6.0,84,0.00,,,0.01,0.000000,,2013-02-03 04:32:00,
2013-02-02 23:42:00,1.0,-3.0,-100.00,WSW,254,3.0,6.0,84,0.00,,,0.01,0.000000,,2013-02-03 04:42:00,
2013-02-02 23:52:00,1.0,-3.0,-100.00,WSW,254,3.0,6.0,84,0.00,,,0.01,0.000000,,2013-02-03 04:52:00,